createdAt,value
2023-11-19T00:01:53.131Z,100906.81
2023-11-19T00:04:55.601Z,100885.00
2023-11-19T00:07:57.597Z,100895.53
2023-11-19T00:10:59.518Z,100879.94
2023-11-19T00:14:01.423Z,100867.75
2023-11-19T00:17:05.277Z,100864.28
2023-11-19T00:20:08.923Z,100881.66
2023-11-19T00:23:10.804Z,100874.59
2023-11-19T00:26:13.672Z,100887.66
2023-11-19T00:29:17.213Z,100884.19
2023-11-19T00:32:19.742Z,100740.66
2023-11-19T00:35:21.856Z,100873.56
2023-11-19T00:38:23.792Z,100872.63
2023-11-19T00:41:26.810Z,100874.25
2023-11-19T00:44:28.812Z,100872.25
2023-11-19T00:47:32.449Z,100866.09
2023-11-19T00:50:37.255Z,100870.59
2023-11-19T00:53:40.561Z,100874.06
2023-11-19T00:56:42.445Z,100861.00
2023-11-19T00:59:44.746Z,100830.13
2023-11-19T01:02:47.830Z,100872.06
2023-11-19T01:05:49.840Z,100883.16
2023-11-19T01:08:51.726Z,100886.59
2023-11-19T01:11:55.337Z,100870.00
2023-11-19T01:14:59.136Z,100849.88
2023-11-19T01:18:03.354Z,100859.44
2023-11-19T01:21:06.059Z,100849.69
2023-11-19T01:24:10.710Z,100872.44
2023-11-19T01:27:13.433Z,100855.06
2023-11-19T01:30:15.369Z,100853.47
2023-11-19T01:33:17.265Z,100845.66
2023-11-19T01:36:19.249Z,100849.09
2023-11-19T01:39:22.353Z,100840.44
2023-11-19T01:42:26.677Z,100794.19
2023-11-19T01:45:30.499Z,100818.78
2023-11-19T01:48:40.548Z,100824.84
2023-11-19T01:51:43.228Z,100832.56
2023-11-19T01:54:46.304Z,100824.81
2023-11-19T01:57:50.323Z,100780.25
2023-11-19T02:00:53.247Z,100801.00
2023-11-19T02:03:55.359Z,100787.06
2023-11-19T02:06:59.584Z,100824.72
2023-11-19T02:10:03.753Z,100833.38
2023-11-19T02:13:07.658Z,100803.78
2023-11-19T02:16:10.830Z,100791.72
2023-11-19T02:19:12.837Z,100797.13
2023-11-19T02:22:14.806Z,100783.84
2023-11-19T02:25:26.563Z,100786.34
2023-11-19T02:28:28.747Z,100786.88
2023-11-19T02:31:30.708Z,100765.78
2023-11-19T02:34:32.738Z,100779.75
2023-11-19T02:37:40.172Z,100792.81
2023-11-19T02:40:42.329Z,100803.22
2023-11-19T02:43:44.276Z,100801.66
2023-11-19T02:46:46.282Z,100780.72
2023-11-19T02:49:49.134Z,100786.94
2023-11-19T02:52:51.828Z,100791.22
2023-11-19T02:55:53.762Z,100794.69
2023-11-19T02:58:55.654Z,100791.22
2023-11-19T03:01:58.743Z,100730.06
2023-11-19T03:05:01.227Z,100770.38
2023-11-19T03:08:04.267Z,100773.09
2023-11-19T03:11:06.806Z,100761.75
2023-11-19T03:14:08.978Z,100770.34
2023-11-19T03:17:11.068Z,100752.06
2023-11-19T03:20:16.491Z,100758.13
2023-11-19T03:23:18.355Z,100724.94
2023-11-19T03:26:20.252Z,100751.38
2023-11-19T03:29:22.180Z,100759.16
2023-11-19T03:32:24.243Z,100760.06
2023-11-19T03:35:26.194Z,100740.19
2023-11-19T03:38:28.141Z,100716.59
2023-11-19T03:41:41.668Z,100715.81
2023-11-19T03:44:44.165Z,100707.91
2023-11-19T03:47:46.342Z,100727.72
2023-11-19T03:50:48.192Z,100683.94
2023-11-19T03:53:50.176Z,100698.75
2023-11-19T03:56:52.355Z,100703.88
2023-11-19T03:59:54.269Z,100663.50
2023-11-19T04:02:56.684Z,100722.25
2023-11-19T04:05:58.627Z,100705.91
2023-11-19T04:09:00.493Z,100650.19
2023-11-19T04:12:02.820Z,100686.13
2023-11-19T04:15:05.808Z,100675.69
2023-11-19T04:18:08.398Z,100668.66
2023-11-19T04:21:10.823Z,100668.69
2023-11-19T04:24:13.677Z,100677.06
2023-11-19T04:27:17.154Z,100648.19
2023-11-19T04:30:19.830Z,100670.22
2023-11-19T04:33:21.685Z,100667.59
2023-11-19T04:36:26.058Z,100675.38
2023-11-19T04:39:28.101Z,100688.31
2023-11-19T04:42:30.800Z,100685.72
2023-11-19T04:45:33.457Z,100698.75
2023-11-19T04:51:44.337Z,100701.13
2023-11-19T04:54:46.374Z,100706.22
2023-11-19T04:57:48.845Z,100669.91
2023-11-19T05:00:50.698Z,100670.78
2023-11-19T05:03:52.877Z,100650.72
2023-11-19T05:06:54.927Z,100673.56
2023-11-19T05:09:56.956Z,100676.31
2023-11-19T05:12:58.923Z,100684.84
2023-11-19T05:16:00.999Z,100678.56
2023-11-19T05:19:02.960Z,100679.22
2023-11-19T05:22:05.116Z,100701.84
2023-11-19T05:25:07.481Z,100665.34
2023-11-19T05:28:09.377Z,100642.78
2023-11-19T05:31:11.438Z,100688.34
2023-11-19T05:34:16.175Z,100684.16
2023-11-19T05:37:18.180Z,100665.81
2023-11-19T05:40:21.890Z,100694.59
2023-11-19T05:43:23.761Z,100626.66
2023-11-19T05:46:27.112Z,100651.38
2023-11-19T05:49:29.159Z,100643.50
2023-11-19T05:52:34.718Z,100665.31
2023-11-19T05:55:38.936Z,100652.13
2023-11-19T05:58:41.650Z,100633.16
2023-11-19T06:01:43.663Z,100628.84
2023-11-19T06:04:48.987Z,100600.03
2023-11-19T06:07:52.559Z,100617.59
2023-11-19T06:10:54.559Z,100626.31
2023-11-19T06:13:57.486Z,100611.31
2023-11-19T06:17:00.057Z,100615.22
2023-11-19T06:20:02.147Z,100612.69
2023-11-19T06:23:04.113Z,100626.72
2023-11-19T06:26:06.382Z,100624.34
2023-11-19T06:29:08.332Z,100609.78
2023-11-19T06:35:15.194Z,100641.25
2023-11-19T06:38:17.189Z,100648.13
2023-11-19T06:41:19.207Z,100602.41
2023-11-19T06:44:22.096Z,100654.13
2023-11-19T06:47:27.811Z,100650.63
2023-11-19T06:50:29.820Z,100663.69
2023-11-19T06:53:31.759Z,100672.47
2023-11-19T06:56:36.573Z,100666.53
2023-11-19T06:59:38.960Z,100668.53
2023-11-19T07:02:41.080Z,100667.84
2023-11-19T07:05:43.295Z,100665.44
2023-11-19T07:08:48.584Z,100615.81
2023-11-19T07:11:53.151Z,100664.84
2023-11-19T07:14:56.393Z,100662.31
2023-11-19T07:21:06.083Z,100651.25
2023-11-19T07:24:08.521Z,100648.66
2023-11-19T07:27:10.453Z,100645.97
2023-11-19T07:30:12.540Z,100652.16
2023-11-19T07:33:15.050Z,100655.81
2023-11-19T07:36:18.228Z,100655.84
2023-11-19T07:39:22.078Z,100649.75
2023-11-19T07:42:25.141Z,100654.09
2023-11-19T07:45:28.562Z,100647.28
2023-11-19T07:48:30.554Z,100632.63
2023-11-19T07:51:32.726Z,100647.56
2023-11-19T07:54:35.018Z,100651.97
2023-11-19T07:57:37.878Z,100661.56
2023-11-19T08:00:40.048Z,100677.22
2023-11-19T08:06:59.417Z,100662.53
2023-11-19T08:10:01.454Z,100659.16
2023-11-19T08:13:03.397Z,100668.81
2023-11-19T08:16:05.803Z,100671.41
2023-11-19T08:19:09.817Z,100613.69
2023-11-19T08:22:11.718Z,100616.28
2023-11-19T08:25:14.267Z,100661.72
2023-11-19T08:28:16.332Z,100655.69
2023-11-19T08:31:18.268Z,100668.81
2023-11-19T08:34:20.796Z,100634.72
2023-11-19T08:37:23.980Z,100680.25
2023-11-19T08:40:29.541Z,100665.63
2023-11-19T08:43:33.102Z,100669.34
2023-11-19T08:46:35.060Z,100651.28
2023-11-19T08:49:37.353Z,100599.09
2023-11-19T08:52:39.485Z,100628.09
2023-11-19T08:55:41.476Z,100598.59
2023-11-19T08:58:43.332Z,100576.03
2023-11-19T09:01:46.260Z,100610.13
2023-11-19T09:04:49.744Z,100600.59
2023-11-19T09:07:52.748Z,100611.13
2023-11-19T09:10:54.625Z,100619.00
2023-11-19T09:13:56.589Z,100602.56
2023-11-19T09:16:59.361Z,100596.56
2023-11-19T09:20:01.209Z,100587.03
2023-11-19T09:23:03.199Z,100587.91
2023-11-19T09:26:06.506Z,100594.03
2023-11-19T09:29:12.557Z,100600.16
2023-11-19T09:32:14.614Z,100578.41
2023-11-19T09:35:17.358Z,100571.47
2023-11-19T09:38:19.298Z,100576.69
2023-11-19T09:41:21.356Z,100579.31
2023-11-19T09:44:24.437Z,100591.50
2023-11-19T09:47:29.053Z,100581.06
2023-11-19T09:50:32.341Z,100582.81
2023-11-19T09:53:35.400Z,100575.84
2023-11-19T09:56:39.006Z,100590.66
2023-11-19T09:59:41.901Z,100575.88
2023-11-19T10:02:48.164Z,100568.03
2023-11-19T10:05:50.441Z,100532.38
2023-11-19T10:08:52.474Z,100561.13
2023-11-19T10:11:54.376Z,100557.59
2023-11-19T10:14:58.202Z,100559.34
2023-11-19T10:18:00.544Z,100537.59
2023-11-19T10:21:02.489Z,100540.19
2023-11-19T10:24:05.322Z,100546.25
2023-11-19T10:27:10.606Z,100586.28
2023-11-19T10:30:13.219Z,100567.13
2023-11-19T10:33:21.246Z,100592.34
2023-11-19T10:36:25.370Z,100578.41
2023-11-19T10:39:56.400Z,100601.03
2023-11-19T10:43:04.995Z,100588.00
2023-11-19T10:46:12.052Z,100579.28
2023-11-19T10:49:14.137Z,100575.81
2023-11-19T10:52:22.932Z,100568.88
2023-11-19T10:55:28.985Z,100562.75
2023-11-19T10:58:34.611Z,100538.44
2023-11-19T11:01:45.028Z,100543.66
2023-11-19T11:04:49.104Z,100528.88
2023-11-19T11:07:53.582Z,100405.34
2023-11-19T11:10:58.029Z,100488.00
2023-11-19T11:14:03.231Z,100468.84
2023-11-19T11:17:09.091Z,100521.91
2023-11-19T11:20:11.727Z,100524.50
2023-11-19T11:23:35.349Z,100477.53
2023-11-19T11:27:09.841Z,100528.84
2023-11-19T11:30:20.354Z,100528.81
2023-11-19T11:33:41.940Z,100485.25
2023-11-19T11:37:08.921Z,100514.00
2023-11-19T11:40:17.221Z,100516.56
2023-11-19T11:43:45.395Z,100515.72
2023-11-19T11:46:55.419Z,100509.63
2023-11-19T11:50:06.137Z,100502.66
2023-11-19T11:53:18.578Z,100493.13
2023-11-19T11:56:20.598Z,100474.00
2023-11-19T11:59:24.998Z,100476.63
2023-11-19T12:02:27.459Z,100468.78
2023-11-19T12:05:30.792Z,100463.56
2023-11-19T12:08:53.286Z,100484.44
2023-11-19T12:12:14.285Z,100455.72
2023-11-19T12:15:16.349Z,100453.16
2023-11-19T12:18:21.048Z,100456.63
2023-11-19T12:21:31.093Z,100464.47
2023-11-19T12:24:33.351Z,100475.78
2023-11-19T12:27:35.356Z,100450.56
2023-11-19T12:30:37.398Z,100456.63
2023-11-19T12:33:39.478Z,100423.59
2023-11-19T12:36:42.327Z,100442.72
2023-11-19T12:39:45.108Z,100434.03
2023-11-19T12:42:48.276Z,100437.50
2023-11-19T12:45:50.252Z,100440.13
2023-11-19T12:48:53.150Z,100431.41
2023-11-19T12:51:55.440Z,100430.53
2023-11-19T12:54:58.873Z,100422.66
2023-11-19T12:58:01.144Z,100426.97
2023-11-19T13:01:08.335Z,100403.50
2023-11-19T13:04:20.699Z,100380.91
2023-11-19T13:07:23.261Z,100372.22
2023-11-19T13:10:25.240Z,100378.34
2023-11-19T13:13:27.167Z,100367.91
2023-11-19T13:16:30.221Z,100323.53
2023-11-19T13:19:32.316Z,100384.34
2023-11-19T13:22:34.166Z,100388.69
2023-11-19T13:25:36.081Z,100389.56
2023-11-19T13:28:38.727Z,100359.09
2023-11-19T13:31:40.771Z,100354.69
2023-11-19T13:34:42.759Z,100363.38
2023-11-19T13:37:45.945Z,100322.50
2023-11-19T13:40:48.082Z,100346.00
2023-11-19T13:43:50.047Z,100339.00
2023-11-19T13:46:52.249Z,100322.44
2023-11-19T13:49:54.172Z,100358.09
2023-11-19T13:52:56.297Z,100363.34
2023-11-19T13:55:58.194Z,100310.28
2023-11-19T13:59:00.054Z,100344.25
2023-11-19T14:02:01.958Z,100310.34
2023-11-19T14:05:04.682Z,100342.59
2023-11-19T14:08:20.050Z,100330.38
2023-11-19T14:11:27.999Z,100326.88
2023-11-19T14:14:30.007Z,100339.88
2023-11-19T14:17:31.936Z,100293.84
2023-11-19T14:20:34.490Z,100313.78
2023-11-19T14:23:36.488Z,100347.63
2023-11-19T14:26:38.434Z,100330.22
2023-11-19T14:29:41.544Z,100301.47
2023-11-19T14:32:48.053Z,100332.78
2023-11-19T14:35:50.038Z,100327.59
2023-11-19T14:38:52.111Z,100280.63
2023-11-19T14:41:55.122Z,100291.06
2023-11-19T14:44:56.994Z,100333.59
2023-11-19T14:47:58.935Z,100302.28
2023-11-19T14:51:00.992Z,100325.78
2023-11-19T14:54:03.116Z,100317.97
2023-11-19T14:57:05.273Z,100253.56
2023-11-19T15:00:14.401Z,100328.34
2023-11-19T15:03:17.756Z,100306.56
2023-11-19T15:06:19.709Z,100313.47
2023-11-19T15:09:22.381Z,100320.41
2023-11-19T15:12:24.469Z,100304.63
2023-11-19T15:18:31.819Z,100348.97
2023-11-19T15:21:33.844Z,100331.66
2023-11-19T15:24:38.153Z,100306.44
2023-11-19T15:27:40.075Z,100332.50
2023-11-19T15:30:42.610Z,100303.88
2023-11-19T15:33:44.545Z,100316.09
2023-11-19T15:36:47.759Z,100299.56
2023-11-19T15:39:52.347Z,100313.38
2023-11-19T15:42:56.391Z,100321.25
2023-11-19T15:45:58.309Z,100317.81
2023-11-19T15:49:00.327Z,100303.88
2023-11-19T15:52:02.346Z,100331.59
2023-11-19T15:55:04.534Z,100351.59
2023-11-19T15:58:07.666Z,100335.06
2023-11-19T16:01:09.873Z,100319.56
2023-11-19T16:04:11.939Z,100328.22
2023-11-19T16:07:15.321Z,100304.69
2023-11-19T16:10:23.938Z,100317.75
2023-11-19T16:13:27.857Z,100303.03
2023-11-19T16:16:29.830Z,100317.81
2023-11-19T16:19:32.148Z,100329.13
2023-11-19T16:22:34.867Z,100316.13
2023-11-19T16:25:38.381Z,100291.78
2023-11-19T16:28:40.713Z,100313.56
2023-11-19T16:31:44.424Z,100313.53
2023-11-19T16:34:49.019Z,100301.31
2023-11-19T16:37:51.380Z,100308.28
2023-11-19T16:40:53.805Z,100318.59
2023-11-19T16:43:58.113Z,100309.97
2023-11-19T16:47:00.059Z,100297.81
2023-11-19T16:50:02.268Z,100267.47
2023-11-19T16:53:05.688Z,100295.16
2023-11-19T16:56:07.848Z,100289.88
2023-11-19T16:59:09.829Z,100288.22
2023-11-19T17:02:14.478Z,100267.31
2023-11-19T17:05:16.591Z,100258.59
2023-11-19T17:08:18.535Z,100276.81
2023-11-19T17:11:20.514Z,100274.16
2023-11-19T17:14:39.889Z,100301.00
2023-11-19T17:17:42.785Z,100272.28
2023-11-19T17:20:44.813Z,100283.53
2023-11-19T17:23:46.697Z,100275.75
2023-11-19T17:26:48.813Z,100238.31
2023-11-19T17:29:50.730Z,100261.78
2023-11-19T17:32:52.746Z,100270.38
2023-11-19T17:35:55.818Z,100264.19
2023-11-19T17:38:57.931Z,100288.56
2023-11-19T17:42:00.028Z,100285.03
2023-11-19T17:45:02.156Z,100274.63
2023-11-19T17:48:04.428Z,100266.81
2023-11-19T17:51:07.976Z,100263.34
2023-11-19T17:54:11.279Z,100259.91
2023-11-19T17:57:14.312Z,100252.91
2023-11-19T18:00:17.226Z,100260.66
2023-11-19T18:03:19.585Z,100264.13
2023-11-19T18:06:21.568Z,100256.28
2023-11-19T18:09:23.557Z,100262.34
2023-11-19T18:12:25.418Z,100268.38
2023-11-19T18:15:27.418Z,100257.06
2023-11-19T18:18:29.406Z,100246.72
2023-11-19T18:21:32.633Z,100251.00
2023-11-19T18:24:37.428Z,100223.19
2023-11-19T18:27:39.609Z,100225.75
2023-11-19T18:30:41.572Z,100216.16
2023-11-19T18:33:43.588Z,100236.13
2023-11-19T18:36:45.667Z,100242.13
2023-11-19T18:39:49.749Z,100233.50
2023-11-19T18:42:54.083Z,100224.00
2023-11-19T18:45:57.563Z,100217.97
2023-11-19T18:49:00.714Z,100231.78
2023-11-19T18:52:03.441Z,100231.84
2023-11-19T18:55:07.196Z,100217.16
2023-11-19T18:58:09.409Z,100186.56
2023-11-19T19:01:14.992Z,100240.50
2023-11-19T19:04:17.875Z,100244.78
2023-11-19T19:07:21.626Z,100214.56
2023-11-19T19:10:23.847Z,100224.97
2023-11-19T19:13:26.336Z,100214.63
2023-11-19T19:16:28.621Z,100213.78
2023-11-19T19:19:30.687Z,100209.44
2023-11-19T19:22:32.589Z,100205.09
2023-11-19T19:25:34.477Z,100203.41
2023-11-19T19:28:39.719Z,100091.16
2023-11-19T19:31:41.676Z,100220.78
2023-11-19T19:34:43.884Z,100225.09
2023-11-19T19:37:45.869Z,100191.25
2023-11-19T19:40:48.344Z,100222.66
2023-11-19T19:43:50.988Z,100233.06
2023-11-19T19:46:53.043Z,100214.91
2023-11-19T19:49:54.884Z,100196.63
2023-11-19T19:52:56.821Z,100204.50
2023-11-19T19:55:58.723Z,100213.16
2023-11-19T19:59:00.884Z,100146.22
2023-11-19T20:02:03.197Z,100192.31
2023-11-19T20:05:12.327Z,100149.69
2023-11-19T20:08:14.558Z,100204.50
2023-11-19T20:11:18.837Z,100218.38
2023-11-19T20:14:24.295Z,100185.38
2023-11-19T20:17:26.647Z,100204.56
2023-11-19T20:20:28.769Z,100194.19
2023-11-19T20:23:30.892Z,100188.16
2023-11-19T20:26:32.964Z,100185.47
2023-11-19T20:29:34.956Z,100172.47
2023-11-19T20:32:37.848Z,100182.06
2023-11-19T20:35:40.294Z,100165.56
2023-11-19T20:38:42.719Z,100177.69
2023-11-19T20:41:44.616Z,100182.88
2023-11-19T20:44:46.748Z,100196.72
2023-11-19T20:47:50.943Z,100192.34
2023-11-19T20:50:53.394Z,100188.88
2023-11-19T20:53:55.355Z,100185.53
2023-11-19T20:56:57.351Z,100189.91
2023-11-19T20:59:59.387Z,100175.16
2023-11-19T21:03:01.693Z,100140.38
2023-11-19T21:06:05.314Z,100116.06
2023-11-19T21:09:11.312Z,100162.25
2023-11-19T21:12:13.836Z,100127.47
2023-11-19T21:15:15.748Z,100112.72
2023-11-19T21:18:19.225Z,100161.38
2023-11-19T21:21:22.495Z,100176.97
2023-11-19T21:24:25.691Z,100183.94
2023-11-19T21:27:31.092Z,100171.84
2023-11-19T21:30:33.276Z,100162.34
2023-11-19T21:33:35.246Z,100127.59
2023-11-19T21:36:37.344Z,100173.63
2023-11-19T21:39:40.933Z,100180.56
2023-11-19T21:42:44.084Z,100174.47
2023-11-19T21:45:47.183Z,100164.97
2023-11-19T21:48:49.781Z,100162.41
2023-11-19T21:51:51.924Z,100173.72
2023-11-19T21:54:54.982Z,100150.22
2023-11-19T21:57:58.341Z,100111.25
2023-11-19T22:01:02.511Z,100141.72
2023-11-19T22:04:05.864Z,100138.22
2023-11-19T22:07:09.564Z,100153.84
2023-11-19T22:10:12.767Z,100115.72
2023-11-19T22:13:15.315Z,100128.81
2023-11-19T22:16:18.304Z,100124.50
2023-11-19T22:19:20.806Z,100121.03
2023-11-19T22:22:25.441Z,100094.13
2023-11-19T22:25:30.818Z,100134.00
2023-11-19T22:28:34.420Z,100134.00
2023-11-19T22:31:36.585Z,100166.97
2023-11-19T22:34:38.689Z,100156.53
2023-11-19T22:37:41.245Z,100171.34
2023-11-19T22:40:43.582Z,100134.03
2023-11-19T22:43:47.174Z,100131.44
2023-11-19T22:46:51.163Z,100142.78
2023-11-19T22:49:57.970Z,100125.41
2023-11-19T22:53:08.781Z,100114.16
2023-11-19T22:56:13.704Z,100111.56
2023-11-19T22:59:16.710Z,100126.25
2023-11-19T23:02:20.185Z,100114.09
2023-11-19T23:05:29.744Z,100115.81
2023-11-19T23:08:32.178Z,100125.38
2023-11-19T23:11:34.605Z,100116.66
2023-11-19T23:14:36.545Z,100134.06
2023-11-19T23:17:38.709Z,100136.66
2023-11-19T23:20:41.263Z,100133.22
2023-11-19T23:23:43.882Z,100137.59
2023-11-19T23:26:45.851Z,100133.25
2023-11-19T23:29:49.238Z,100123.72
2023-11-19T23:32:53.535Z,100099.47
2023-11-19T23:35:55.469Z,100099.47
2023-11-19T23:38:57.464Z,100108.16
2023-11-19T23:42:04.294Z,100094.25
2023-11-19T23:45:06.716Z,100088.16
2023-11-19T23:48:09.034Z,100098.59
2023-11-19T23:51:11.359Z,100092.56
2023-11-19T23:54:13.775Z,100097.75
2023-11-19T23:57:16.092Z,100102.09
